sensor_id;sensor_type;location;lat;lon;timestamp;temperature;humidity
59469;DHT22;45277;52.768;18.262;2023-09-18T00:00:56;14.00;99.90
59469;DHT22;45277;52.768;18.262;2023-09-18T00:02:43;14.00;99.90
59469;DHT22;45277;52.768;18.262;2023-09-18T00:04:15;14.00;99.90
59469;DHT22;45277;52.768;18.262;2023-09-18T00:05:47;14.00;99.90
59469;DHT22;45277;52.768;18.262;2023-09-18T00:07:19;14.00;99.90
59469;DHT22;45277;52.768;18.262;2023-09-18T00:08:50;14.00;99.90
59469;DHT22;45277;52.768;18.262;2023-09-18T00:10:22;14.00;99.90
59469;DHT22;45277;52.768;18.262;2023-09-18T00:11:53;14.00;99.90
59469;DHT22;45277;52.768;18.262;2023-09-18T00:13:25;14.10;99.90
59469;DHT22;45277;52.768;18.262;2023-09-18T00:14:57;14.10;99.90
59469;DHT22;45277;52.768;18.262;2023-09-18T00:16:28;14.00;99.90
59469;DHT22;45277;52.768;18.262;2023-09-18T00:17:59;14.00;99.90
59469;DHT22;45277;52.768;18.262;2023-09-18T00:19:32;14.00;99.90
59469;DHT22;45277;52.768;18.262;2023-09-18T00:21:04;14.00;99.90
59469;DHT22;45277;52.768;18.262;2023-09-18T00:22:37;14.00;99.90
59469;DHT22;45277;52.768;18.262;2023-09-18T00:24:09;14.00;99.90
59469;DHT22;45277;52.768;18.262;2023-09-18T00:25:40;13.90;99.90
59469;DHT22;45277;52.768;18.262;2023-09-18T00:27:13;13.90;99.90
59469;DHT22;45277;52.768;18.262;2023-09-18T00:28:45;13.80;99.90
59469;DHT22;45277;52.768;18.262;2023-09-18T00:30:16;13.80;99.90
59469;DHT22;45277;52.768;18.262;2023-09-18T00:31:47;13.70;99.90
59469;DHT22;45277;52.768;18.262;2023-09-18T00:33:19;13.70;99.90
59469;DHT22;45277;52.768;18.262;2023-09-18T00:34:50;13.70;99.90
59469;DHT22;45277;52.768;18.262;2023-09-18T00:36:21;13.70;99.90
59469;DHT22;45277;52.768;18.262;2023-09-18T00:37:53;13.70;99.90
59469;DHT22;45277;52.768;18.262;2023-09-18T00:39:25;13.70;99.90
59469;DHT22;45277;52.768;18.262;2023-09-18T00:40:56;13.60;99.90
59469;DHT22;45277;52.768;18.262;2023-09-18T00:42:27;13.60;99.90
59469;DHT22;45277;52.768;18.262;2023-09-18T00:43:59;13.60;99.90
59469;DHT22;45277;52.768;18.262;2023-09-18T00:45:30;13.50;99.90
59469;DHT22;45277;52.768;18.262;2023-09-18T00:47:02;13.50;99.90
59469;DHT22;45277;52.768;18.262;2023-09-18T00:48:33;13.40;99.90
59469;DHT22;45277;52.768;18.262;2023-09-18T00:50:07;13.40;99.90
59469;DHT22;45277;52.768;18.262;2023-09-18T00:51:41;13.30;99.90
59469;DHT22;45277;52.768;18.262;2023-09-18T00:53:16;13.30;99.90
59469;DHT22;45277;52.768;18.262;2023-09-18T00:54:49;13.30;99.90
59469;DHT22;45277;52.768;18.262;2023-09-18T00:56:21;13.20;99.90
59469;DHT22;45277;52.768;18.262;2023-09-18T00:57:55;13.20;99.90
59469;DHT22;45277;52.768;18.262;2023-09-18T00:59:26;13.30;99.90
59469;DHT22;45277;52.768;18.262;2023-09-18T01:00:58;13.30;99.90
59469;DHT22;45277;52.768;18.262;2023-09-18T01:02:31;13.30;99.90
59469;DHT22;45277;52.768;18.262;2023-09-18T01:04:02;13.30;99.90
59469;DHT22;45277;52.768;18.262;2023-09-18T01:05:34;13.30;99.90
59469;DHT22;45277;52.768;18.262;2023-09-18T01:07:06;13.40;99.90
59469;DHT22;45277;52.768;18.262;2023-09-18T01:08:38;13.40;99.90
59469;DHT22;45277;52.768;18.262;2023-09-18T01:10:09;13.40;99.90
59469;DHT22;45277;52.768;18.262;2023-09-18T01:13:23;13.30;99.90
59469;DHT22;45277;52.768;18.262;2023-09-18T01:16:53;13.30;99.90
59469;DHT22;45277;52.768;18.262;2023-09-18T01:18:27;13.30;99.90
59469;DHT22;45277;52.768;18.262;2023-09-18T01:19:59;13.30;99.90
59469;DHT22;45277;52.768;18.262;2023-09-18T01:21:30;13.20;99.90
59469;DHT22;45277;52.768;18.262;2023-09-18T01:23:02;13.20;99.90
59469;DHT22;45277;52.768;18.262;2023-09-18T01:24:34;13.20;99.90
59469;DHT22;45277;52.768;18.262;2023-09-18T01:26:06;13.20;99.90
59469;DHT22;45277;52.768;18.262;2023-09-18T01:27:37;13.20;99.90
59469;DHT22;45277;52.768;18.262;2023-09-18T01:29:08;13.20;99.90
59469;DHT22;45277;52.768;18.262;2023-09-18T01:30:40;13.20;99.90
59469;DHT22;45277;52.768;18.262;2023-09-18T01:32:11;13.10;99.90
59469;DHT22;45277;52.768;18.262;2023-09-18T01:33:44;13.10;99.90
59469;DHT22;45277;52.768;18.262;2023-09-18T01:35:18;13.10;99.90
59469;DHT22;45277;52.768;18.262;2023-09-18T01:36:50;13.10;99.90
59469;DHT22;45277;52.768;18.262;2023-09-18T01:38:23;13.10;99.90
59469;DHT22;45277;52.768;18.262;2023-09-18T01:39:55;13.10;99.90
59469;DHT22;45277;52.768;18.262;2023-09-18T01:41:30;13.10;99.90
59469;DHT22;45277;52.768;18.262;2023-09-18T01:43:01;13.10;99.90
59469;DHT22;45277;52.768;18.262;2023-09-18T01:44:33;13.10;99.90
59469;DHT22;45277;52.768;18.262;2023-09-18T01:46:05;13.10;99.90
59469;DHT22;45277;52.768;18.262;2023-09-18T01:47:37;13.10;99.90
59469;DHT22;45277;52.768;18.262;2023-09-18T01:49:08;13.20;99.90
59469;DHT22;45277;52.768;18.262;2023-09-18T01:50:39;13.30;99.90
59469;DHT22;45277;52.768;18.262;2023-09-18T01:52:12;13.30;99.90
59469;DHT22;45277;52.768;18.262;2023-09-18T01:53:43;13.30;99.90
59469;DHT22;45277;52.768;18.262;2023-09-18T01:55:15;13.30;99.90
59469;DHT22;45277;52.768;18.262;2023-09-18T01:56:46;13.30;99.90
59469;DHT22;45277;52.768;18.262;2023-09-18T01:58:17;13.30;99.90
59469;DHT22;45277;52.768;18.262;2023-09-18T01:59:49;13.20;99.90
59469;DHT22;45277;52.768;18.262;2023-09-18T02:01:20;13.20;99.90
59469;DHT22;45277;52.768;18.262;2023-09-18T02:02:52;13.20;99.90
59469;DHT22;45277;52.768;18.262;2023-09-18T02:04:23;13.20;99.90
59469;DHT22;45277;52.768;18.262;2023-09-18T02:05:55;13.10;99.90
59469;DHT22;45277;52.768;18.262;2023-09-18T02:07:26;13.10;99.90
59469;DHT22;45277;52.768;18.262;2023-09-18T02:08:57;13.00;99.90
59469;DHT22;45277;52.768;18.262;2023-09-18T02:10:29;13.00;99.90
59469;DHT22;45277;52.768;18.262;2023-09-18T02:12:00;13.00;99.90
59469;DHT22;45277;52.768;18.262;2023-09-18T02:13:32;12.90;99.90
59469;DHT22;45277;52.768;18.262;2023-09-18T02:15:03;12.90;99.90
59469;DHT22;45277;52.768;18.262;2023-09-18T02:16:39;12.90;99.90
59469;DHT22;45277;52.768;18.262;2023-09-18T02:18:14;12.90;99.90
59469;DHT22;45277;52.768;18.262;2023-09-18T02:19:47;12.90;99.90
59469;DHT22;45277;52.768;18.262;2023-09-18T02:21:21;12.90;99.90
59469;DHT22;45277;52.768;18.262;2023-09-18T02:22:52;12.80;99.90
59469;DHT22;45277;52.768;18.262;2023-09-18T02:24:24;12.80;99.90
59469;DHT22;45277;52.768;18.262;2023-09-18T02:25:56;12.90;99.90
59469;DHT22;45277;52.768;18.262;2023-09-18T02:27:28;12.90;99.90
59469;DHT22;45277;52.768;18.262;2023-09-18T02:29:02;13.10;99.90
59469;DHT22;45277;52.768;18.262;2023-09-18T02:30:33;13.30;99.90
59469;DHT22;45277;52.768;18.262;2023-09-18T02:32:05;13.40;99.90
59469;DHT22;45277;52.768;18.262;2023-09-18T02:33:37;13.50;99.90
59469;DHT22;45277;52.768;18.262;2023-09-18T02:35:09;13.60;99.90
59469;DHT22;45277;52.768;18.262;2023-09-18T02:36:40;13.60;99.90
59469;DHT22;45277;52.768;18.262;2023-09-18T02:38:11;13.70;99.90
59469;DHT22;45277;52.768;18.262;2023-09-18T02:39:43;13.70;99.90
59469;DHT22;45277;52.768;18.262;2023-09-18T02:41:14;13.70;99.90
59469;DHT22;45277;52.768;18.262;2023-09-18T02:42:46;13.70;99.90
59469;DHT22;45277;52.768;18.262;2023-09-18T02:44:17;13.70;99.90
59469;DHT22;45277;52.768;18.262;2023-09-18T02:45:49;13.70;99.90
59469;DHT22;45277;52.768;18.262;2023-09-18T02:47:20;13.70;99.90
59469;DHT22;45277;52.768;18.262;2023-09-18T02:48:52;13.70;99.90
59469;DHT22;45277;52.768;18.262;2023-09-18T02:50:23;13.70;99.90
59469;DHT22;45277;52.768;18.262;2023-09-18T02:51:55;13.60;99.90
59469;DHT22;45277;52.768;18.262;2023-09-18T02:53:26;13.70;99.90
59469;DHT22;45277;52.768;18.262;2023-09-18T02:54:57;13.70;99.90
59469;DHT22;45277;52.768;18.262;2023-09-18T02:56:29;13.60;99.90
59469;DHT22;45277;52.768;18.262;2023-09-18T02:58:00;13.70;99.90
59469;DHT22;45277;52.768;18.262;2023-09-18T02:59:31;13.70;99.90
59469;DHT22;45277;52.768;18.262;2023-09-18T03:01:03;13.80;99.90
59469;DHT22;45277;52.768;18.262;2023-09-18T03:02:36;13.80;99.90
59469;DHT22;45277;52.768;18.262;2023-09-18T03:04:07;13.80;99.90
59469;DHT22;45277;52.768;18.262;2023-09-18T03:05:40;13.90;99.90
59469;DHT22;45277;52.768;18.262;2023-09-18T03:07:15;13.80;99.90
59469;DHT22;45277;52.768;18.262;2023-09-18T03:08:47;13.70;99.90
59469;DHT22;45277;52.768;18.262;2023-09-18T03:10:18;13.70;99.90
59469;DHT22;45277;52.768;18.262;2023-09-18T03:11:50;13.60;99.90
59469;DHT22;45277;52.768;18.262;2023-09-18T03:13:21;13.60;99.90
59469;DHT22;45277;52.768;18.262;2023-09-18T03:14:53;13.50;99.90
59469;DHT22;45277;52.768;18.262;2023-09-18T03:16:24;13.40;99.90
59469;DHT22;45277;52.768;18.262;2023-09-18T03:17:59;13.40;99.90
59469;DHT22;45277;52.768;18.262;2023-09-18T03:19:32;13.40;99.90
59469;DHT22;45277;52.768;18.262;2023-09-18T03:21:03;13.30;99.90
59469;DHT22;45277;52.768;18.262;2023-09-18T03:22:35;13.20;99.90
59469;DHT22;45277;52.768;18.262;2023-09-18T03:24:07;13.20;99.90
59469;DHT22;45277;52.768;18.262;2023-09-18T03:25:38;13.10;99.90
59469;DHT22;45277;52.768;18.262;2023-09-18T03:27:09;13.10;99.90
59469;DHT22;45277;52.768;18.262;2023-09-18T03:28:41;13.10;99.90
59469;DHT22;45277;52.768;18.262;2023-09-18T03:30:12;13.00;99.90
59469;DHT22;45277;52.768;18.262;2023-09-18T03:31:46;13.00;99.90
59469;DHT22;45277;52.768;18.262;2023-09-18T03:33:18;12.90;99.90
59469;DHT22;45277;52.768;18.262;2023-09-18T03:34:53;13.00;99.90
59469;DHT22;45277;52.768;18.262;2023-09-18T03:36:24;13.00;99.90
59469;DHT22;45277;52.768;18.262;2023-09-18T03:37:56;13.10;99.90
59469;DHT22;45277;52.768;18.262;2023-09-18T03:39:27;13.10;99.90
59469;DHT22;45277;52.768;18.262;2023-09-18T03:41:01;13.10;99.90
59469;DHT22;45277;52.768;18.262;2023-09-18T03:42:32;13.20;99.90
59469;DHT22;45277;52.768;18.262;2023-09-18T03:44:04;13.20;99.90
59469;DHT22;45277;52.768;18.262;2023-09-18T03:45:35;13.10;99.90
59469;DHT22;45277;52.768;18.262;2023-09-18T03:47:07;13.10;99.90
59469;DHT22;45277;52.768;18.262;2023-09-18T03:48:38;13.00;99.90
59469;DHT22;45277;52.768;18.262;2023-09-18T03:50:10;13.00;99.90
59469;DHT22;45277;52.768;18.262;2023-09-18T03:51:42;12.90;99.90
59469;DHT22;45277;52.768;18.262;2023-09-18T03:53:15;12.90;99.90
59469;DHT22;45277;52.768;18.262;2023-09-18T03:54:46;12.90;99.90
59469;DHT22;45277;52.768;18.262;2023-09-18T03:56:18;12.90;99.90
59469;DHT22;45277;52.768;18.262;2023-09-18T03:57:49;12.80;99.90
59469;DHT22;45277;52.768;18.262;2023-09-18T03:59:20;12.80;99.90
59469;DHT22;45277;52.768;18.262;2023-09-18T04:00:52;12.80;99.90
59469;DHT22;45277;52.768;18.262;2023-09-18T04:02:25;12.80;99.90
59469;DHT22;45277;52.768;18.262;2023-09-18T04:03:56;12.80;99.90
59469;DHT22;45277;52.768;18.262;2023-09-18T04:05:29;12.90;99.90
59469;DHT22;45277;52.768;18.262;2023-09-18T04:07:05;12.90;99.90
59469;DHT22;45277;52.768;18.262;2023-09-18T04:08:37;12.90;99.90
59469;DHT22;45277;52.768;18.262;2023-09-18T04:10:09;12.90;99.90
59469;DHT22;45277;52.768;18.262;2023-09-18T04:11:41;13.00;99.90
59469;DHT22;45277;52.768;18.262;2023-09-18T04:13:13;13.10;99.90
59469;DHT22;45277;52.768;18.262;2023-09-18T04:14:45;13.10;99.90
59469;DHT22;45277;52.768;18.262;2023-09-18T04:16:16;13.10;99.90
59469;DHT22;45277;52.768;18.262;2023-09-18T04:17:48;13.10;99.90
59469;DHT22;45277;52.768;18.262;2023-09-18T04:19:20;13.10;99.90
59469;DHT22;45277;52.768;18.262;2023-09-18T04:20:51;13.10;99.90
59469;DHT22;45277;52.768;18.262;2023-09-18T04:22:22;13.10;99.90
59469;DHT22;45277;52.768;18.262;2023-09-18T04:23:54;13.10;99.90
59469;DHT22;45277;52.768;18.262;2023-09-18T04:25:28;13.10;99.90
59469;DHT22;45277;52.768;18.262;2023-09-18T04:27:02;13.20;99.90
59469;DHT22;45277;52.768;18.262;2023-09-18T04:28:33;13.20;99.90
59469;DHT22;45277;52.768;18.262;2023-09-18T04:30:06;13.30;99.90
59469;DHT22;45277;52.768;18.262;2023-09-18T04:31:37;13.30;99.90
59469;DHT22;45277;52.768;18.262;2023-09-18T04:33:13;13.30;99.90
59469;DHT22;45277;52.768;18.262;2023-09-18T04:34:45;13.30;99.90
59469;DHT22;45277;52.768;18.262;2023-09-18T04:36:16;13.20;99.90
59469;DHT22;45277;52.768;18.262;2023-09-18T04:37:48;13.20;99.90
59469;DHT22;45277;52.768;18.262;2023-09-18T04:39:19;13.20;99.90
59469;DHT22;45277;52.768;18.262;2023-09-18T04:41:00;13.30;99.90
59469;DHT22;45277;52.768;18.262;2023-09-18T04:42:32;13.30;99.90
59469;DHT22;45277;52.768;18.262;2023-09-18T04:44:04;13.30;99.90
59469;DHT22;45277;52.768;18.262;2023-09-18T04:45:36;13.40;99.90
59469;DHT22;45277;52.768;18.262;2023-09-18T04:47:07;13.40;99.90
59469;DHT22;45277;52.768;18.262;2023-09-18T04:48:39;13.40;99.90
59469;DHT22;45277;52.768;18.262;2023-09-18T04:50:10;13.30;99.90
59469;DHT22;45277;52.768;18.262;2023-09-18T04:51:43;13.40;99.90
59469;DHT22;45277;52.768;18.262;2023-09-18T04:53:15;13.40;99.90
59469;DHT22;45277;52.768;18.262;2023-09-18T04:54:46;13.40;99.90
59469;DHT22;45277;52.768;18.262;2023-09-18T04:56:18;13.40;99.90
59469;DHT22;45277;52.768;18.262;2023-09-18T04:57:50;13.40;99.90
59469;DHT22;45277;52.768;18.262;2023-09-18T04:59:21;13.40;99.90
59469;DHT22;45277;52.768;18.262;2023-09-18T05:00:54;13.50;99.90
59469;DHT22;45277;52.768;18.262;2023-09-18T05:02:26;13.60;99.90
59469;DHT22;45277;52.768;18.262;2023-09-18T05:03:57;13.60;99.90
59469;DHT22;45277;52.768;18.262;2023-09-18T05:05:29;13.60;99.90
59469;DHT22;45277;52.768;18.262;2023-09-18T05:07:00;13.70;99.90
59469;DHT22;45277;52.768;18.262;2023-09-18T05:08:33;13.80;99.90
59469;DHT22;45277;52.768;18.262;2023-09-18T05:10:05;13.90;99.90
59469;DHT22;45277;52.768;18.262;2023-09-18T05:11:36;14.00;99.90
59469;DHT22;45277;52.768;18.262;2023-09-18T05:13:08;14.00;99.90
59469;DHT22;45277;52.768;18.262;2023-09-18T05:14:40;14.10;99.90
59469;DHT22;45277;52.768;18.262;2023-09-18T05:16:11;14.20;99.90
59469;DHT22;45277;52.768;18.262;2023-09-18T05:17:48;14.20;99.90
59469;DHT22;45277;52.768;18.262;2023-09-18T05:19:25;14.30;99.90
59469;DHT22;45277;52.768;18.262;2023-09-18T05:20:57;14.30;99.90
59469;DHT22;45277;52.768;18.262;2023-09-18T05:22:29;14.40;99.90
59469;DHT22;45277;52.768;18.262;2023-09-18T05:24:00;14.40;99.90
59469;DHT22;45277;52.768;18.262;2023-09-18T05:25:33;14.50;99.90
59469;DHT22;45277;52.768;18.262;2023-09-18T05:27:05;14.50;99.90
59469;DHT22;45277;52.768;18.262;2023-09-18T05:28:38;14.60;99.90
59469;DHT22;45277;52.768;18.262;2023-09-18T05:30:23;14.60;99.90
59469;DHT22;45277;52.768;18.262;2023-09-18T05:31:54;14.60;99.90
59469;DHT22;45277;52.768;18.262;2023-09-18T05:33:26;14.70;99.90
59469;DHT22;45277;52.768;18.262;2023-09-18T05:34:57;14.70;99.90
59469;DHT22;45277;52.768;18.262;2023-09-18T05:36:33;14.80;99.90
59469;DHT22;45277;52.768;18.262;2023-09-18T05:38:05;14.80;99.90
59469;DHT22;45277;52.768;18.262;2023-09-18T05:39:36;14.80;99.90
59469;DHT22;45277;52.768;18.262;2023-09-18T05:41:07;14.90;99.90
59469;DHT22;45277;52.768;18.262;2023-09-18T05:42:43;14.90;99.90
59469;DHT22;45277;52.768;18.262;2023-09-18T05:44:14;15.00;99.90
59469;DHT22;45277;52.768;18.262;2023-09-18T05:45:45;15.10;99.90
59469;DHT22;45277;52.768;18.262;2023-09-18T05:47:17;15.10;99.90
59469;DHT22;45277;52.768;18.262;2023-09-18T05:48:48;15.20;99.90
59469;DHT22;45277;52.768;18.262;2023-09-18T05:50:20;15.30;99.90
59469;DHT22;45277;52.768;18.262;2023-09-18T05:51:51;15.40;99.90
59469;DHT22;45277;52.768;18.262;2023-09-18T05:53:23;15.40;99.90
59469;DHT22;45277;52.768;18.262;2023-09-18T05:54:55;15.50;99.90
59469;DHT22;45277;52.768;18.262;2023-09-18T05:56:26;15.60;99.90
59469;DHT22;45277;52.768;18.262;2023-09-18T05:57:58;15.60;99.90
59469;DHT22;45277;52.768;18.262;2023-09-18T05:59:29;15.70;99.90
59469;DHT22;45277;52.768;18.262;2023-09-18T06:01:01;15.80;99.90
59469;DHT22;45277;52.768;18.262;2023-09-18T06:02:33;15.80;99.90
59469;DHT22;45277;52.768;18.262;2023-09-18T06:04:05;15.90;99.90
59469;DHT22;45277;52.768;18.262;2023-09-18T06:05:36;15.90;99.90
59469;DHT22;45277;52.768;18.262;2023-09-18T06:07:08;15.90;99.90
59469;DHT22;45277;52.768;18.262;2023-09-18T06:08:39;16.00;99.90
59469;DHT22;45277;52.768;18.262;2023-09-18T06:10:11;16.10;99.90
59469;DHT22;45277;52.768;18.262;2023-09-18T06:11:43;16.10;99.90
59469;DHT22;45277;52.768;18.262;2023-09-18T06:13:14;16.20;99.90
59469;DHT22;45277;52.768;18.262;2023-09-18T06:14:46;16.30;99.90
59469;DHT22;45277;52.768;18.262;2023-09-18T06:16:19;16.30;99.90
59469;DHT22;45277;52.768;18.262;2023-09-18T06:17:50;16.40;99.90
59469;DHT22;45277;52.768;18.262;2023-09-18T06:19:21;16.50;99.90
59469;DHT22;45277;52.768;18.262;2023-09-18T06:20:53;16.60;99.90
59469;DHT22;45277;52.768;18.262;2023-09-18T06:22:24;16.60;99.90
59469;DHT22;45277;52.768;18.262;2023-09-18T06:23:56;16.70;99.90
59469;DHT22;45277;52.768;18.262;2023-09-18T06:25:28;16.70;99.90
59469;DHT22;45277;52.768;18.262;2023-09-18T06:27:02;16.80;99.90
59469;DHT22;45277;52.768;18.262;2023-09-18T06:28:37;16.90;99.90
59469;DHT22;45277;52.768;18.262;2023-09-18T06:30:09;16.90;99.90
59469;DHT22;45277;52.768;18.262;2023-09-18T06:31:41;17.00;99.90
59469;DHT22;45277;52.768;18.262;2023-09-18T06:33:13;17.10;99.90
59469;DHT22;45277;52.768;18.262;2023-09-18T06:34:45;17.20;99.90
59469;DHT22;45277;52.768;18.262;2023-09-18T06:36:18;17.40;99.90
59469;DHT22;45277;52.768;18.262;2023-09-18T06:37:50;17.40;99.90
59469;DHT22;45277;52.768;18.262;2023-09-18T06:39:22;17.50;99.90
59469;DHT22;45277;52.768;18.262;2023-09-18T06:40:54;17.70;99.90
59469;DHT22;45277;52.768;18.262;2023-09-18T06:42:26;17.80;99.90
59469;DHT22;45277;52.768;18.262;2023-09-18T06:43:59;17.90;99.90
59469;DHT22;45277;52.768;18.262;2023-09-18T06:45:33;18.00;99.90
59469;DHT22;45277;52.768;18.262;2023-09-18T06:47:05;18.10;99.90
59469;DHT22;45277;52.768;18.262;2023-09-18T06:48:36;18.10;99.90
59469;DHT22;45277;52.768;18.262;2023-09-18T06:50:07;18.30;99.90
59469;DHT22;45277;52.768;18.262;2023-09-18T06:51:40;18.40;99.90
59469;DHT22;45277;52.768;18.262;2023-09-18T06:53:11;18.40;99.90
59469;DHT22;45277;52.768;18.262;2023-09-18T06:54:43;18.50;99.90
59469;DHT22;45277;52.768;18.262;2023-09-18T06:56:15;18.60;99.90
59469;DHT22;45277;52.768;18.262;2023-09-18T06:57:46;18.70;99.90
59469;DHT22;45277;52.768;18.262;2023-09-18T06:59:19;18.80;99.90
59469;DHT22;45277;52.768;18.262;2023-09-18T07:00:51;18.90;99.90
59469;DHT22;45277;52.768;18.262;2023-09-18T07:02:23;18.90;99.90
59469;DHT22;45277;52.768;18.262;2023-09-18T07:03:54;19.00;99.90
59469;DHT22;45277;52.768;18.262;2023-09-18T07:05:27;19.20;99.90
59469;DHT22;45277;52.768;18.262;2023-09-18T07:06:59;19.20;99.90
59469;DHT22;45277;52.768;18.262;2023-09-18T07:08:30;19.30;99.90
59469;DHT22;45277;52.768;18.262;2023-09-18T07:10:02;19.40;99.90
59469;DHT22;45277;52.768;18.262;2023-09-18T07:11:34;19.50;99.90
59469;DHT22;45277;52.768;18.262;2023-09-18T07:13:05;19.60;99.90
59469;DHT22;45277;52.768;18.262;2023-09-18T07:14:37;19.70;99.90
59469;DHT22;45277;52.768;18.262;2023-09-18T07:16:09;19.70;99.90
59469;DHT22;45277;52.768;18.262;2023-09-18T07:17:40;19.70;99.90
59469;DHT22;45277;52.768;18.262;2023-09-18T07:19:12;19.80;99.90
59469;DHT22;45277;52.768;18.262;2023-09-18T07:20:47;19.90;99.90
59469;DHT22;45277;52.768;18.262;2023-09-18T07:22:19;20.00;99.90
59469;DHT22;45277;52.768;18.262;2023-09-18T07:23:50;19.90;99.90
59469;DHT22;45277;52.768;18.262;2023-09-18T07:25:22;19.90;99.90
59469;DHT22;45277;52.768;18.262;2023-09-18T07:26:54;20.10;99.90
59469;DHT22;45277;52.768;18.262;2023-09-18T07:28:26;20.10;99.90
59469;DHT22;45277;52.768;18.262;2023-09-18T07:29:58;20.20;99.90
59469;DHT22;45277;52.768;18.262;2023-09-18T07:31:29;20.30;99.90
59469;DHT22;45277;52.768;18.262;2023-09-18T07:33:01;20.40;99.90
59469;DHT22;45277;52.768;18.262;2023-09-18T07:34:33;20.50;99.90
59469;DHT22;45277;52.768;18.262;2023-09-18T07:36:04;20.70;99.90
59469;DHT22;45277;52.768;18.262;2023-09-18T07:37:36;20.70;99.90
59469;DHT22;45277;52.768;18.262;2023-09-18T07:39:08;20.90;99.90
59469;DHT22;45277;52.768;18.262;2023-09-18T07:40:39;21.00;99.90
59469;DHT22;45277;52.768;18.262;2023-09-18T07:42:11;21.10;99.90
59469;DHT22;45277;52.768;18.262;2023-09-18T07:43:42;21.20;99.90
59469;DHT22;45277;52.768;18.262;2023-09-18T07:45:13;21.20;99.90
59469;DHT22;45277;52.768;18.262;2023-09-18T07:46:45;21.30;99.90
59469;DHT22;45277;52.768;18.262;2023-09-18T07:48:16;21.40;99.90
59469;DHT22;45277;52.768;18.262;2023-09-18T07:49:50;21.50;99.90
59469;DHT22;45277;52.768;18.262;2023-09-18T07:51:22;21.60;99.90
59469;DHT22;45277;52.768;18.262;2023-09-18T07:52:54;21.70;99.90
59469;DHT22;45277;52.768;18.262;2023-09-18T07:54:25;21.80;99.90
59469;DHT22;45277;52.768;18.262;2023-09-18T07:55:58;21.90;99.90
59469;DHT22;45277;52.768;18.262;2023-09-18T07:57:30;22.00;99.90
59469;DHT22;45277;52.768;18.262;2023-09-18T07:59:03;22.00;99.90
59469;DHT22;45277;52.768;18.262;2023-09-18T08:00:36;22.10;99.90
59469;DHT22;45277;52.768;18.262;2023-09-18T08:02:08;22.10;99.90
59469;DHT22;45277;52.768;18.262;2023-09-18T08:03:40;22.20;99.90
59469;DHT22;45277;52.768;18.262;2023-09-18T08:05:12;22.20;99.90
59469;DHT22;45277;52.768;18.262;2023-09-18T08:06:44;22.30;99.90
59469;DHT22;45277;52.768;18.262;2023-09-18T08:08:15;22.40;99.90
59469;DHT22;45277;52.768;18.262;2023-09-18T08:09:47;22.40;99.90
59469;DHT22;45277;52.768;18.262;2023-09-18T08:11:20;22.50;99.90
59469;DHT22;45277;52.768;18.262;2023-09-18T08:12:51;22.50;99.90
59469;DHT22;45277;52.768;18.262;2023-09-18T08:14:23;22.60;99.90
59469;DHT22;45277;52.768;18.262;2023-09-18T08:15:55;22.80;99.90
59469;DHT22;45277;52.768;18.262;2023-09-18T08:17:26;22.90;99.90
59469;DHT22;45277;52.768;18.262;2023-09-18T08:18:58;22.90;99.90
59469;DHT22;45277;52.768;18.262;2023-09-18T08:20:30;23.00;99.90
59469;DHT22;45277;52.768;18.262;2023-09-18T08:22:01;23.10;99.90
59469;DHT22;45277;52.768;18.262;2023-09-18T08:23:33;23.10;99.90
59469;DHT22;45277;52.768;18.262;2023-09-18T08:25:05;23.10;99.90
59469;DHT22;45277;52.768;18.262;2023-09-18T08:26:43;23.20;99.90
59469;DHT22;45277;52.768;18.262;2023-09-18T08:28:14;23.40;99.90
59469;DHT22;45277;52.768;18.262;2023-09-18T08:29:46;23.40;99.90
59469;DHT22;45277;52.768;18.262;2023-09-18T08:31:17;23.60;99.90
59469;DHT22;45277;52.768;18.262;2023-09-18T08:32:49;23.70;99.90
59469;DHT22;45277;52.768;18.262;2023-09-18T08:34:20;23.80;99.90
59469;DHT22;45277;52.768;18.262;2023-09-18T08:35:52;23.90;99.90
59469;DHT22;45277;52.768;18.262;2023-09-18T08:37:23;24.00;99.90
59469;DHT22;45277;52.768;18.262;2023-09-18T08:38:55;24.00;99.90
59469;DHT22;45277;52.768;18.262;2023-09-18T08:40:26;24.00;99.90
59469;DHT22;45277;52.768;18.262;2023-09-18T08:42:03;24.10;99.90
59469;DHT22;45277;52.768;18.262;2023-09-18T08:43:35;24.20;99.90
59469;DHT22;45277;52.768;18.262;2023-09-18T08:45:09;24.20;99.90
59469;DHT22;45277;52.768;18.262;2023-09-18T08:46:42;24.20;99.90
59469;DHT22;45277;52.768;18.262;2023-09-18T08:48:14;24.30;99.90
59469;DHT22;45277;52.768;18.262;2023-09-18T08:49:48;24.20;99.90
59469;DHT22;45277;52.768;18.262;2023-09-18T08:51:21;24.40;99.90
59469;DHT22;45277;52.768;18.262;2023-09-18T08:52:54;24.40;99.90
59469;DHT22;45277;52.768;18.262;2023-09-18T08:54:26;24.50;98.00
59469;DHT22;45277;52.768;18.262;2023-09-18T08:56:00;24.50;96.90
59469;DHT22;45277;52.768;18.262;2023-09-18T08:57:33;24.60;99.50
59469;DHT22;45277;52.768;18.262;2023-09-18T08:59:06;24.60;94.80
59469;DHT22;45277;52.768;18.262;2023-09-18T09:00:38;24.60;91.70
59469;DHT22;45277;52.768;18.262;2023-09-18T09:02:10;24.70;89.70
59469;DHT22;45277;52.768;18.262;2023-09-18T09:03:43;24.80;88.40
59469;DHT22;45277;52.768;18.262;2023-09-18T09:05:18;24.80;90.30
59469;DHT22;45277;52.768;18.262;2023-09-18T09:06:49;25.00;85.40
59469;DHT22;45277;52.768;18.262;2023-09-18T09:08:20;25.10;83.30
59469;DHT22;45277;52.768;18.262;2023-09-18T09:09:52;25.20;71.90
59469;DHT22;45277;52.768;18.262;2023-09-18T09:11:24;25.20;58.40
59469;DHT22;45277;52.768;18.262;2023-09-18T09:12:59;25.30;62.20
59469;DHT22;45277;52.768;18.262;2023-09-18T09:14:32;25.30;72.60
59469;DHT22;45277;52.768;18.262;2023-09-18T09:16:04;25.40;58.90
59469;DHT22;45277;52.768;18.262;2023-09-18T09:17:35;25.50;61.30
59469;DHT22;45277;52.768;18.262;2023-09-18T09:19:07;25.60;60.30
59469;DHT22;45277;52.768;18.262;2023-09-18T09:20:38;25.60;59.50
59469;DHT22;45277;52.768;18.262;2023-09-18T09:22:20;25.60;51.70
59469;DHT22;45277;52.768;18.262;2023-09-18T09:23:53;25.70;47.60
59469;DHT22;45277;52.768;18.262;2023-09-18T09:25:25;25.80;47.30
59469;DHT22;45277;52.768;18.262;2023-09-18T09:26:58;25.90;48.40
59469;DHT22;45277;52.768;18.262;2023-09-18T09:28:30;26.00;45.60
59469;DHT22;45277;52.768;18.262;2023-09-18T09:30:02;26.20;38.80
59469;DHT22;45277;52.768;18.262;2023-09-18T09:31:37;26.30;37.40
59469;DHT22;45277;52.768;18.262;2023-09-18T09:33:12;26.30;38.00
59469;DHT22;45277;52.768;18.262;2023-09-18T09:34:44;26.50;34.50
59469;DHT22;45277;52.768;18.262;2023-09-18T09:36:15;26.60;36.40